createdAt,value
2022-12-25T00:01:07.892Z,7.33
2022-12-25T00:03:38.373Z,7.35
2022-12-25T00:08:17.239Z,7.19
2022-12-25T00:10:48.328Z,7.21
2022-12-25T00:13:18.906Z,7.23
2022-12-25T00:15:46.915Z,7.22
2022-12-25T00:18:17.269Z,7.22
2022-12-25T00:20:57.633Z,7.22
2022-12-25T00:23:27.370Z,7.22
2022-12-25T00:25:55.587Z,7.20
2022-12-25T00:28:25.010Z,7.22
2022-12-25T00:30:53.563Z,7.21
2022-12-25T00:33:21.834Z,7.21
2022-12-25T00:35:58.825Z,7.21
2022-12-25T00:38:29.063Z,7.21
2022-12-25T00:40:57.048Z,7.23
2022-12-25T00:43:25.714Z,7.21
2022-12-25T00:45:58.907Z,7.24
2022-12-25T00:48:27.537Z,7.25
2022-12-25T00:50:57.041Z,7.22
2022-12-25T00:53:25.585Z,7.27
2022-12-25T00:55:55.894Z,7.28
2022-12-25T00:58:25.502Z,7.30
2022-12-25T01:00:53.647Z,7.30
2022-12-25T01:03:22.163Z,7.31
2022-12-25T01:05:56.562Z,7.31
2022-12-25T01:08:24.800Z,7.31
2022-12-25T01:10:57.803Z,7.32
2022-12-25T01:13:28.806Z,7.31
2022-12-25T01:15:56.950Z,7.28
2022-12-25T01:18:26.398Z,7.27
2022-12-25T01:20:54.487Z,7.27
2022-12-25T01:23:24.851Z,7.28
2022-12-25T01:25:53.018Z,7.26
2022-12-25T01:28:22.305Z,7.28
2022-12-25T01:30:52.784Z,7.28
2022-12-25T01:33:20.747Z,7.29
2022-12-25T01:35:53.447Z,7.23
2022-12-25T01:38:24.797Z,7.26
2022-12-25T01:40:52.993Z,7.24
2022-12-25T01:43:26.736Z,7.25
2022-12-25T01:45:55.355Z,7.29
2022-12-25T01:48:26.644Z,7.27
2022-12-25T01:50:58.763Z,7.28
2022-12-25T01:53:27.748Z,7.21
2022-12-25T01:56:00.991Z,7.23
2022-12-25T01:58:32.166Z,7.21
2022-12-25T02:01:00.760Z,7.18
2022-12-25T02:03:31.511Z,7.18
2022-12-25T02:06:00.423Z,7.14
2022-12-25T02:08:28.788Z,7.08
2022-12-25T02:10:57.127Z,7.01
2022-12-25T02:13:25.293Z,6.99
2022-12-25T02:16:04.754Z,6.93
2022-12-25T02:18:43.517Z,6.93
2022-12-25T02:21:28.060Z,6.90
2022-12-25T02:24:14.198Z,6.78
2022-12-25T02:26:56.592Z,6.81
2022-12-25T02:29:33.465Z,6.75
2022-12-25T02:32:06.439Z,6.73
2022-12-25T02:34:39.536Z,6.71
2022-12-25T02:37:13.787Z,-150.39
2022-12-25T02:40:01.029Z,-150.39
2022-12-25T02:42:53.054Z,-150.39
2022-12-25T02:45:56.149Z,-150.39
2022-12-25T02:48:44.283Z,-150.39
2022-12-25T02:51:33.843Z,-150.39
2022-12-25T02:54:28.004Z,-150.39
2022-12-25T02:57:23.890Z,-150.39
2022-12-25T03:00:12.622Z,-150.39
2022-12-25T03:03:01.220Z,-150.39
2022-12-25T03:05:50.550Z,-150.39
2022-12-25T03:08:21.354Z,-150.39
2022-12-25T03:11:15.243Z,-150.39
2022-12-25T03:13:46.416Z,-150.39
2022-12-25T03:16:32.016Z,-150.39
2022-12-25T03:19:21.516Z,-150.39
2022-12-25T03:22:07.629Z,-150.39
2022-12-25T03:24:53.319Z,-150.39
2022-12-25T03:27:21.413Z,-150.39
2022-12-25T03:30:07.519Z,-150.39
2022-12-25T03:32:40.923Z,-150.39
2022-12-25T03:35:25.563Z,-150.39
2022-12-25T03:38:28.418Z,-150.39
2022-12-25T03:41:25.890Z,-150.39
2022-12-25T03:44:16.509Z,-150.39
2022-12-25T03:47:12.542Z,-150.39
2022-12-25T03:50:05.605Z,-150.39
2022-12-25T03:52:55.475Z,-150.39
2022-12-25T03:55:42.037Z,-150.39
2022-12-25T03:58:36.059Z,-150.39
2022-12-25T04:01:22.115Z,-150.39
2022-12-25T04:04:15.682Z,-150.39
2022-12-25T04:07:15.993Z,-150.39
2022-12-25T04:10:05.152Z,-150.39
2022-12-25T04:12:51.031Z,-150.39
2022-12-25T04:15:36.783Z,-150.39
2022-12-25T04:18:37.441Z,-150.39
2022-12-25T04:21:23.287Z,-150.39
2022-12-25T04:24:08.791Z,-150.39
2022-12-25T04:26:55.649Z,-150.39
2022-12-25T04:29:41.622Z,-150.39
2022-12-25T04:32:26.834Z,-150.39
2022-12-25T04:35:12.216Z,-150.39
2022-12-25T04:37:40.245Z,-150.39
2022-12-25T04:40:09.659Z,-150.39
2022-12-25T04:42:39.396Z,-150.39
2022-12-25T04:45:11.743Z,-150.39
2022-12-25T04:47:39.828Z,-150.39
2022-12-25T04:50:09.015Z,-150.39
2022-12-25T04:52:37.836Z,-150.39
2022-12-25T04:55:07.563Z,-150.39
2022-12-25T04:57:35.617Z,-150.39
2022-12-25T05:00:06.174Z,-150.39
2022-12-25T05:02:36.778Z,-150.39
2022-12-25T05:05:05.237Z,-150.39
2022-12-25T05:09:17.255Z,6.74
2022-12-25T05:11:45.318Z,6.67
2022-12-25T05:14:13.305Z,6.74
2022-12-25T05:16:41.483Z,6.75
2022-12-25T05:19:09.559Z,6.77
2022-12-25T05:21:37.892Z,6.78
2022-12-25T05:24:06.103Z,6.79
2022-12-25T05:26:35.831Z,6.80
2022-12-25T05:29:03.792Z,6.79
2022-12-25T05:31:34.066Z,6.74
2022-12-25T05:34:02.095Z,6.79
2022-12-25T05:36:30.189Z,6.82
2022-12-25T05:38:58.441Z,6.67
2022-12-25T05:41:34.210Z,6.79
2022-12-25T05:44:04.236Z,6.77
2022-12-25T05:46:32.261Z,6.81
2022-12-25T05:49:00.592Z,6.85
2022-12-25T05:51:28.667Z,6.86
2022-12-25T05:53:56.641Z,6.89
2022-12-25T05:56:24.833Z,6.89
2022-12-25T05:58:53.353Z,6.95
2022-12-25T06:01:24.556Z,6.93
2022-12-25T06:03:52.889Z,6.97
2022-12-25T06:06:20.939Z,6.99
2022-12-25T06:08:49.113Z,7.04
2022-12-25T06:11:17.708Z,7.07
2022-12-25T06:13:45.977Z,7.10
2022-12-25T06:16:15.937Z,7.13
2022-12-25T06:18:48.272Z,7.14
2022-12-25T06:21:16.792Z,7.16
2022-12-25T06:23:45.386Z,7.18
2022-12-25T06:26:15.952Z,7.17
2022-12-25T06:28:46.318Z,7.19
2022-12-25T06:31:16.920Z,7.23
2022-12-25T06:33:48.501Z,7.27
2022-12-25T06:36:22.640Z,7.29
2022-12-25T06:38:51.447Z,7.30
2022-12-25T06:41:22.105Z,7.33
2022-12-25T06:43:51.216Z,7.35
2022-12-25T06:46:20.590Z,7.38
2022-12-25T06:48:50.822Z,7.39
2022-12-25T06:51:19.989Z,7.40
2022-12-25T06:53:52.225Z,7.43
2022-12-25T06:56:24.146Z,7.47
2022-12-25T06:58:54.483Z,7.48
2022-12-25T07:01:28.861Z,7.50
2022-12-25T07:04:01.034Z,7.46
2022-12-25T07:06:32.011Z,7.51
2022-12-25T07:09:03.173Z,7.50
2022-12-25T07:11:31.311Z,7.50
2022-12-25T07:14:01.755Z,7.46
2022-12-25T07:16:29.859Z,7.44
2022-12-25T07:19:00.528Z,7.41
2022-12-25T07:21:33.455Z,7.35
2022-12-25T07:24:05.103Z,7.32
2022-12-25T07:26:33.686Z,7.29
2022-12-25T07:29:01.974Z,7.29
2022-12-25T07:31:30.123Z,7.29
2022-12-25T07:34:02.017Z,7.30
2022-12-25T07:36:33.223Z,7.31
2022-12-25T07:39:01.843Z,7.32
2022-12-25T07:41:29.801Z,7.34
2022-12-25T07:44:14.838Z,7.34
2022-12-25T07:46:42.926Z,7.39
2022-12-25T07:49:12.650Z,7.40
2022-12-25T07:51:42.864Z,7.45
2022-12-25T07:54:10.992Z,7.53
2022-12-25T07:56:38.959Z,7.56
2022-12-25T07:59:07.087Z,7.64
2022-12-25T08:01:35.530Z,7.68
2022-12-25T08:04:04.254Z,7.68
2022-12-25T08:06:35.590Z,7.69
2022-12-25T08:09:06.124Z,7.76
2022-12-25T08:11:37.283Z,7.76
2022-12-25T08:14:07.894Z,7.77
2022-12-25T08:16:41.531Z,7.80
2022-12-25T08:19:10.295Z,7.82
2022-12-25T08:21:41.845Z,7.78
2022-12-25T08:24:10.767Z,7.73
2022-12-25T08:26:38.829Z,7.73
2022-12-25T08:29:07.130Z,7.72
2022-12-25T08:31:39.387Z,7.73
2022-12-25T08:34:11.910Z,7.73
2022-12-25T08:36:43.386Z,7.69
2022-12-25T08:39:11.644Z,7.68
2022-12-25T08:41:40.522Z,7.67
2022-12-25T08:44:08.749Z,7.69
2022-12-25T08:46:37.200Z,7.79
2022-12-25T08:49:05.205Z,7.83
2022-12-25T08:51:37.388Z,7.85
2022-12-25T08:54:06.898Z,7.86
2022-12-25T08:56:36.642Z,7.87
2022-12-25T08:59:04.616Z,7.93
2022-12-25T09:01:34.855Z,7.90
2022-12-25T09:04:05.531Z,7.89
2022-12-25T09:06:33.761Z,7.91
2022-12-25T09:09:03.717Z,7.87
2022-12-25T09:11:33.277Z,7.89
2022-12-25T09:14:01.677Z,7.96
2022-12-25T09:16:29.766Z,7.89
2022-12-25T09:18:58.498Z,7.89
2022-12-25T09:21:26.657Z,7.99
2022-12-25T09:23:54.690Z,8.05
2022-12-25T09:26:22.690Z,8.11
2022-12-25T09:28:52.817Z,8.16
2022-12-25T09:31:21.737Z,8.18
2022-12-25T09:33:49.920Z,8.30
2022-12-25T09:36:18.447Z,8.39
2022-12-25T09:38:46.578Z,8.40
2022-12-25T09:41:18.169Z,8.41
2022-12-25T09:43:51.029Z,8.48
2022-12-25T09:46:30.218Z,8.57
2022-12-25T09:49:07.725Z,8.75
2022-12-25T09:51:40.796Z,9.05
2022-12-25T09:54:17.796Z,9.40
2022-12-25T09:56:45.726Z,9.44
2022-12-25T09:59:21.668Z,9.53
2022-12-25T10:02:00.491Z,9.37
2022-12-25T10:04:43.375Z,9.30
2022-12-25T10:10:36.399Z,9.37
2022-12-25T10:13:17.031Z,9.53
2022-12-25T10:15:55.850Z,9.65
2022-12-25T10:18:45.717Z,9.81
2022-12-25T10:21:18.324Z,9.79
2022-12-25T10:23:50.662Z,10.04
2022-12-25T10:26:25.173Z,9.91
2022-12-25T10:29:01.289Z,10.09
2022-12-25T10:31:31.781Z,10.14
2022-12-25T10:34:00.275Z,10.20
2022-12-25T10:36:31.195Z,10.40
2022-12-25T10:39:00.478Z,10.26
2022-12-25T10:41:50.266Z,10.25
2022-12-25T10:44:24.421Z,10.23
2022-12-25T10:46:55.187Z,10.21
2022-12-25T10:49:25.365Z,10.18
2022-12-25T10:51:53.535Z,10.43
2022-12-25T10:54:26.903Z,10.68
2022-12-25T10:56:58.776Z,11.02
2022-12-25T10:59:28.702Z,10.76
2022-12-25T11:02:14.340Z,10.59
2022-12-25T11:04:42.947Z,10.49
2022-12-25T11:07:21.715Z,10.39
2022-12-25T11:09:57.786Z,10.35
2022-12-25T11:12:32.972Z,10.37
2022-12-25T11:15:05.493Z,10.43
2022-12-25T11:17:36.961Z,10.40
2022-12-25T11:20:25.740Z,10.35
2022-12-25T11:22:54.242Z,10.27
2022-12-25T11:25:26.269Z,10.17
2022-12-25T11:28:03.076Z,10.18
2022-12-25T11:30:33.527Z,10.18
2022-12-25T11:33:05.969Z,10.13
2022-12-25T11:35:45.825Z,10.04
2022-12-25T11:38:16.213Z,10.21
2022-12-25T11:40:50.144Z,10.17
2022-12-25T11:44:55.083Z,10.16
2022-12-25T11:46:52.261Z,10.16
2022-12-25T11:49:22.112Z,10.14
2022-12-25T11:51:54.742Z,10.02
2022-12-25T11:54:29.018Z,10.12
2022-12-25T11:57:00.987Z,10.12
2022-12-25T11:59:34.668Z,10.30
2022-12-25T12:02:13.374Z,10.49
2022-12-25T12:04:44.735Z,10.79
2022-12-25T12:07:22.410Z,11.11
2022-12-25T12:10:04.171Z,11.62
2022-12-25T12:12:48.298Z,12.16
2022-12-25T12:15:23.402Z,12.94
2022-12-25T12:17:51.374Z,12.91
2022-12-25T12:20:30.577Z,12.61
2022-12-25T12:23:00.304Z,12.01
2022-12-25T12:25:29.891Z,11.59
2022-12-25T12:28:05.380Z,11.49
2022-12-25T12:30:36.243Z,11.21
2022-12-25T12:33:06.208Z,11.22
2022-12-25T12:35:38.130Z,11.22
2022-12-25T12:38:10.192Z,11.39
2022-12-25T12:40:45.023Z,11.40
2022-12-25T12:43:32.048Z,11.62
2022-12-25T12:46:09.485Z,11.47
2022-12-25T12:48:43.562Z,11.40
2022-12-25T12:51:14.143Z,11.35
2022-12-25T12:53:44.854Z,11.20
2022-12-25T12:56:16.427Z,11.26
2022-12-25T12:58:49.881Z,11.26
2022-12-25T13:01:49.124Z,11.21
2022-12-25T13:04:45.168Z,11.31
2022-12-25T13:07:29.844Z,11.46
2022-12-25T13:10:10.574Z,11.48
2022-12-25T13:12:38.920Z,11.47
2022-12-25T13:15:13.205Z,11.42
2022-12-25T13:17:46.959Z,11.50
2022-12-25T13:20:25.231Z,11.46
2022-12-25T13:22:53.399Z,11.37
2022-12-25T13:25:23.295Z,11.38
2022-12-25T13:27:58.416Z,11.32
2022-12-25T13:30:27.243Z,11.36
2022-12-25T13:33:02.682Z,11.38
2022-12-25T13:35:31.144Z,11.38
2022-12-25T13:37:59.501Z,11.35
2022-12-25T13:40:29.725Z,11.36
2022-12-25T13:43:01.127Z,11.37
2022-12-25T13:45:34.456Z,11.32
2022-12-25T13:48:15.475Z,11.31
2022-12-25T13:50:48.363Z,11.28
2022-12-25T13:53:18.371Z,11.25
2022-12-25T13:55:52.411Z,11.25
2022-12-25T13:58:27.918Z,11.22
2022-12-25T14:00:58.945Z,11.26
2022-12-25T14:03:36.153Z,11.25
2022-12-25T14:06:07.230Z,11.26
2022-12-25T14:08:36.989Z,11.27
2022-12-25T14:11:09.273Z,11.27
2022-12-25T14:13:44.064Z,11.26
2022-12-25T14:16:17.980Z,11.27
2022-12-25T14:18:55.072Z,11.26
2022-12-25T14:21:28.013Z,11.24
2022-12-25T14:23:56.579Z,11.21
2022-12-25T14:26:29.229Z,11.19
2022-12-25T14:29:16.511Z,11.17
2022-12-25T14:31:46.720Z,11.14
2022-12-25T14:34:18.797Z,11.12
2022-12-25T14:36:47.095Z,11.13
2022-12-25T14:39:30.955Z,11.09
2022-12-25T14:41:59.276Z,11.03
2022-12-25T14:44:33.541Z,11.00
2022-12-25T14:47:16.939Z,11.03
2022-12-25T14:49:47.721Z,10.99
2022-12-25T14:52:20.533Z,10.97
2022-12-25T14:54:54.124Z,10.93
2022-12-25T14:57:28.089Z,10.92
2022-12-25T15:00:06.600Z,10.92
2022-12-25T15:02:44.218Z,10.89
2022-12-25T15:05:28.975Z,10.81
2022-12-25T15:11:18.731Z,10.68
2022-12-25T15:13:46.841Z,10.67
2022-12-25T15:16:22.380Z,10.63
2022-12-25T15:18:51.781Z,10.57
2022-12-25T15:21:26.857Z,10.52
2022-12-25T15:24:01.298Z,10.53
2022-12-25T15:26:33.267Z,10.49
2022-12-25T15:29:01.337Z,10.45
2022-12-25T15:31:37.247Z,10.38
2022-12-25T15:34:07.401Z,10.32
2022-12-25T15:36:35.661Z,10.28
2022-12-25T15:39:03.854Z,10.26
2022-12-25T15:41:54.357Z,10.25
2022-12-25T15:44:22.955Z,10.19
2022-12-25T15:46:53.600Z,10.09
2022-12-25T15:49:21.705Z,10.05
2022-12-25T15:51:49.709Z,10.00
2022-12-25T15:54:17.789Z,9.95
2022-12-25T15:56:52.117Z,9.89
2022-12-25T15:59:21.915Z,9.82
2022-12-25T16:01:51.283Z,9.80
2022-12-25T16:04:20.484Z,9.78
2022-12-25T16:06:49.333Z,9.73
2022-12-25T16:09:20.132Z,9.73
2022-12-25T16:11:51.245Z,9.68
2022-12-25T16:14:20.283Z,9.58
2022-12-25T16:16:48.455Z,9.49
2022-12-25T16:19:16.401Z,9.50
2022-12-25T16:21:46.400Z,9.46
2022-12-25T16:24:14.819Z,9.43
2022-12-25T16:26:43.533Z,9.46
2022-12-25T16:29:13.105Z,9.55
2022-12-25T16:31:43.561Z,9.57
2022-12-25T16:34:11.793Z,9.55
2022-12-25T16:36:39.749Z,9.55
2022-12-25T16:39:10.637Z,9.53
2022-12-25T16:41:40.891Z,9.46
2022-12-25T16:44:10.333Z,9.42
2022-12-25T16:46:40.926Z,9.41
2022-12-25T16:49:09.269Z,9.35
2022-12-25T16:51:37.597Z,9.26
2022-12-25T16:54:06.240Z,9.15
2022-12-25T16:56:36.721Z,9.05
2022-12-25T16:59:05.000Z,8.99
2022-12-25T17:01:33.496Z,8.91
2022-12-25T17:04:03.449Z,8.88
2022-12-25T17:06:31.873Z,8.86
2022-12-25T17:09:02.283Z,8.77
2022-12-25T17:11:30.862Z,8.69
2022-12-25T17:14:02.096Z,8.59
2022-12-25T17:16:35.517Z,8.45
2022-12-25T17:19:08.041Z,8.34
2022-12-25T17:21:38.536Z,8.25
2022-12-25T17:24:07.965Z,8.20
2022-12-25T17:26:36.336Z,8.11
2022-12-25T17:29:04.861Z,8.02
2022-12-25T17:31:33.076Z,8.01
2022-12-25T17:34:03.289Z,7.99
2022-12-25T17:36:33.487Z,7.98
2022-12-25T17:39:05.819Z,7.92
2022-12-25T17:41:34.514Z,7.82
2022-12-25T17:44:05.167Z,7.79
2022-12-25T17:46:33.489Z,7.71
2022-12-25T17:49:02.102Z,7.67
2022-12-25T17:51:32.671Z,7.69
2022-12-25T17:54:03.967Z,7.74
2022-12-25T17:56:32.994Z,7.79
2022-12-25T17:59:06.525Z,7.95
2022-12-25T18:01:36.817Z,7.97
2022-12-25T18:04:06.128Z,7.97
2022-12-25T18:06:38.399Z,8.05
2022-12-25T18:09:07.116Z,8.15
2022-12-25T18:11:36.847Z,8.17
2022-12-25T18:14:06.954Z,8.22
2022-12-25T18:16:37.477Z,8.25
2022-12-25T18:19:08.097Z,8.24
2022-12-25T18:21:38.582Z,8.27
2022-12-25T18:24:08.269Z,8.26
2022-12-25T18:26:37.523Z,8.26
2022-12-25T18:29:06.795Z,8.24
2022-12-25T18:31:35.055Z,8.19
2022-12-25T18:34:04.947Z,8.07
2022-12-25T18:36:33.055Z,8.05
2022-12-25T18:39:02.693Z,7.73
2022-12-25T18:41:30.734Z,7.89
2022-12-25T18:44:00.902Z,7.80
2022-12-25T18:46:29.420Z,7.83
2022-12-25T18:48:59.676Z,7.81
2022-12-25T18:51:36.402Z,7.84
2022-12-25T18:54:06.647Z,7.83
2022-12-25T18:56:34.916Z,7.79
2022-12-25T18:59:05.546Z,7.82
2022-12-25T19:01:35.901Z,7.82
2022-12-25T19:04:05.603Z,7.78
2022-12-25T19:06:34.893Z,7.72
2022-12-25T19:09:09.251Z,7.75
2022-12-25T19:11:46.104Z,7.73
2022-12-25T19:14:15.527Z,7.79
2022-12-25T19:16:43.799Z,7.89
2022-12-25T19:19:12.086Z,7.97
2022-12-25T19:21:40.054Z,7.98
2022-12-25T19:24:08.633Z,8.05
2022-12-25T19:26:37.862Z,8.11
2022-12-25T19:29:07.196Z,8.21
2022-12-25T19:31:35.209Z,8.29
2022-12-25T19:34:03.599Z,8.35
2022-12-25T19:36:34.227Z,8.40
2022-12-25T19:39:02.498Z,8.43
2022-12-25T19:41:30.769Z,8.45
2022-12-25T19:43:58.877Z,8.47
2022-12-25T19:46:30.516Z,8.49
2022-12-25T19:49:04.288Z,8.50
2022-12-25T19:51:34.747Z,8.53
2022-12-25T19:54:03.280Z,8.52
2022-12-25T19:56:32.089Z,8.59
2022-12-25T19:59:00.937Z,8.65
2022-12-25T20:01:31.398Z,8.76
2022-12-25T20:04:01.788Z,8.96
2022-12-25T20:06:32.208Z,9.00
2022-12-25T20:12:32.246Z,9.06
2022-12-25T20:15:00.374Z,9.02
2022-12-25T20:17:29.137Z,8.98
2022-12-25T20:19:57.192Z,9.12
2022-12-25T20:22:25.353Z,9.11
2022-12-25T20:24:56.060Z,9.18
2022-12-25T20:27:24.083Z,9.16
2022-12-25T20:29:55.993Z,9.10
2022-12-25T20:32:24.405Z,9.07
2022-12-25T20:34:52.688Z,9.07
2022-12-25T20:37:20.848Z,9.06
2022-12-25T20:39:51.652Z,9.05
2022-12-25T20:42:20.257Z,9.03
2022-12-25T20:44:48.768Z,8.94
2022-12-25T20:47:18.249Z,8.94
2022-12-25T20:49:48.531Z,8.92
2022-12-25T20:52:17.028Z,8.88
2022-12-25T20:54:45.065Z,8.92
2022-12-25T20:57:16.221Z,8.89
2022-12-25T20:59:47.090Z,8.88
2022-12-25T21:02:34.437Z,8.94
2022-12-25T21:05:08.007Z,8.93
2022-12-25T21:07:36.228Z,9.05
2022-12-25T21:10:05.731Z,8.99
2022-12-25T21:12:36.236Z,9.00
2022-12-25T21:15:07.788Z,9.25
2022-12-25T21:17:38.344Z,9.42
2022-12-25T21:20:09.070Z,9.88
2022-12-25T21:22:37.024Z,9.90
2022-12-25T21:25:05.734Z,10.11
2022-12-25T21:27:34.632Z,10.22
2022-12-25T21:30:14.530Z,10.15
2022-12-25T21:33:03.655Z,10.15
2022-12-25T21:35:32.972Z,10.17
2022-12-25T21:38:01.178Z,10.28
2022-12-25T21:40:29.201Z,10.43
2022-12-25T21:43:00.468Z,10.42
2022-12-25T21:45:30.895Z,10.43
2022-12-25T21:48:03.531Z,10.42
2022-12-25T21:50:50.680Z,10.40
2022-12-25T21:53:21.369Z,10.45
2022-12-25T21:56:00.522Z,10.35
2022-12-25T21:58:29.152Z,10.58
2022-12-25T22:00:57.420Z,10.50
2022-12-25T22:03:25.974Z,10.41
2022-12-25T22:06:21.133Z,10.38
2022-12-25T22:08:50.137Z,10.29
2022-12-25T22:11:35.589Z,10.41
2022-12-25T22:14:52.049Z,10.58
2022-12-25T22:17:41.082Z,10.60
2022-12-25T22:20:12.243Z,10.84
2022-12-25T22:22:41.655Z,10.80
2022-12-25T22:25:11.022Z,10.78
2022-12-25T22:27:40.395Z,10.72
2022-12-25T22:30:11.560Z,10.72
2022-12-25T22:32:39.652Z,10.70
2022-12-25T22:35:08.666Z,10.57
2022-12-25T22:37:36.952Z,10.70
2022-12-25T22:40:08.247Z,10.65
2022-12-25T22:42:36.374Z,10.57
2022-12-25T22:45:06.335Z,10.65
2022-12-25T22:47:34.290Z,10.70
2022-12-25T22:50:02.703Z,10.70
2022-12-25T22:52:31.034Z,10.71
2022-12-25T22:54:59.224Z,10.71
2022-12-25T22:57:32.199Z,11.04
2022-12-25T23:00:00.185Z,10.95
2022-12-25T23:02:31.442Z,10.95
2022-12-25T23:04:59.548Z,10.90
2022-12-25T23:07:28.184Z,11.03
2022-12-25T23:09:56.641Z,11.12
2022-12-25T23:12:42.398Z,11.17
2022-12-25T23:15:12.043Z,11.12
2022-12-25T23:17:57.648Z,11.09
2022-12-25T23:20:43.201Z,11.07
2022-12-25T23:23:33.313Z,11.02
2022-12-25T23:26:09.710Z,11.11
2022-12-25T23:28:55.823Z,11.04
2022-12-25T23:31:30.848Z,11.16
2022-12-25T23:33:59.268Z,11.33
2022-12-25T23:36:32.591Z,11.27
2022-12-25T23:39:08.682Z,11.23
2022-12-25T23:41:38.315Z,11.17
2022-12-25T23:44:06.429Z,11.13
2022-12-25T23:46:38.506Z,11.05
2022-12-25T23:49:09.195Z,10.98
2022-12-25T23:51:37.901Z,10.87
2022-12-25T23:54:07.209Z,10.81
2022-12-25T23:56:35.331Z,10.93
2022-12-25T23:59:06.772Z,10.85
